createdAt,value
2023-04-29T00:00:14.322Z,11.33
2023-04-29T00:01:16.987Z,11.32
2023-04-29T00:02:19.380Z,11.32
2023-04-29T00:03:22.178Z,11.31
2023-04-29T00:04:27.769Z,11.32
2023-04-29T00:05:30.315Z,11.30
2023-04-29T00:06:32.663Z,11.31
2023-04-29T00:07:38.081Z,11.30
2023-04-29T00:08:40.738Z,11.29
2023-04-29T00:09:43.078Z,11.30
2023-04-29T00:10:45.312Z,11.29
2023-04-29T00:11:48.106Z,11.27
2023-04-29T00:12:51.818Z,11.27
2023-04-29T00:13:54.105Z,11.26
2023-04-29T00:14:56.486Z,11.26
2023-04-29T00:19:03.987Z,11.23
2023-04-29T00:20:07.822Z,11.20
2023-04-29T00:21:10.100Z,11.19
2023-04-29T00:22:12.420Z,11.19
2023-04-29T00:23:14.690Z,11.19
2023-04-29T00:24:16.940Z,11.18
2023-04-29T00:25:19.247Z,11.17
2023-04-29T00:26:21.604Z,11.17
2023-04-29T00:27:24.561Z,11.16
2023-04-29T00:28:28.196Z,11.15
2023-04-29T00:29:30.541Z,11.16
2023-04-29T00:30:34.715Z,11.15
2023-04-29T00:31:37.766Z,11.15
2023-04-29T00:32:40.377Z,11.15
2023-04-29T00:33:42.847Z,11.13
2023-04-29T00:34:45.365Z,11.13
2023-04-29T00:35:47.729Z,11.13
2023-04-29T00:36:50.803Z,11.13
2023-04-29T00:37:54.232Z,11.13
2023-04-29T00:38:56.759Z,11.13
2023-04-29T00:39:59.292Z,11.13
2023-04-29T00:41:01.693Z,11.14
2023-04-29T00:42:04.308Z,11.13
2023-04-29T00:43:06.604Z,11.11
2023-04-29T00:44:10.074Z,11.11
2023-04-29T00:45:12.890Z,11.11
2023-04-29T00:46:15.245Z,11.11
2023-04-29T00:47:17.633Z,11.13
2023-04-29T00:48:20.093Z,11.11
2023-04-29T00:49:22.375Z,11.11
2023-04-29T00:50:25.053Z,11.11
2023-04-29T00:51:27.459Z,11.11
2023-04-29T00:52:31.792Z,11.10
2023-04-29T00:53:34.566Z,11.10
2023-04-29T00:54:38.127Z,11.10
2023-04-29T00:55:42.401Z,11.10
2023-04-29T00:56:47.316Z,11.09
2023-04-29T00:57:52.650Z,11.11
2023-04-29T00:58:55.211Z,11.12
2023-04-29T00:59:58.636Z,11.10
2023-04-29T01:01:04.277Z,11.11
2023-04-29T01:02:06.834Z,11.11
2023-04-29T01:03:09.695Z,11.11
2023-04-29T01:04:13.028Z,11.10
2023-04-29T01:05:15.620Z,11.11
2023-04-29T01:06:24.439Z,11.11
2023-04-29T01:07:26.729Z,11.10
2023-04-29T01:08:52.664Z,11.11
2023-04-29T01:10:10.950Z,11.12
2023-04-29T01:11:15.163Z,11.10
2023-04-29T01:12:32.362Z,11.11
2023-04-29T01:13:42.950Z,11.10
2023-04-29T01:14:54.240Z,11.09
2023-04-29T01:16:04.198Z,11.11
2023-04-29T01:17:11.388Z,11.10
2023-04-29T01:18:30.472Z,11.10
2023-04-29T01:19:40.502Z,11.10
2023-04-29T01:20:45.007Z,11.09
2023-04-29T01:21:51.911Z,11.08
2023-04-29T01:22:55.675Z,11.07
2023-04-29T01:23:58.451Z,11.08
2023-04-29T01:25:04.929Z,11.08
2023-04-29T01:26:10.276Z,11.06
2023-04-29T01:27:41.302Z,11.07
2023-04-29T01:29:13.287Z,11.07
2023-04-29T01:30:57.292Z,11.06
2023-04-29T01:32:09.233Z,11.07
2023-04-29T01:33:29.788Z,11.05
2023-04-29T01:34:55.459Z,11.05
2023-04-29T01:36:13.774Z,11.04
2023-04-29T01:38:07.371Z,11.04
2023-04-29T01:39:16.958Z,11.03
2023-04-29T01:40:33.543Z,11.04
2023-04-29T01:41:59.250Z,11.03
2023-04-29T01:43:08.384Z,11.03
2023-04-29T01:44:17.178Z,11.02
2023-04-29T01:45:21.862Z,11.03
2023-04-29T01:46:24.509Z,11.00
2023-04-29T01:47:31.292Z,11.00
2023-04-29T01:48:33.614Z,11.01
2023-04-29T01:49:37.158Z,11.00
2023-04-29T01:50:39.670Z,11.00
2023-04-29T01:51:49.424Z,11.00
2023-04-29T01:52:51.804Z,11.01
2023-04-29T01:53:54.375Z,11.01
2023-04-29T01:54:57.636Z,11.01
2023-04-29T01:56:02.905Z,11.00
2023-04-29T01:57:17.908Z,11.01
2023-04-29T01:58:34.746Z,11.01
2023-04-29T02:00:07.303Z,11.01
2023-04-29T02:01:15.580Z,11.02
2023-04-29T02:02:21.557Z,11.02
2023-04-29T02:03:32.394Z,11.02
2023-04-29T02:04:37.583Z,11.02
2023-04-29T02:05:40.372Z,11.02
2023-04-29T02:06:43.107Z,11.02
2023-04-29T02:07:45.977Z,11.01
2023-04-29T02:08:49.246Z,11.02
2023-04-29T02:09:52.752Z,11.01
2023-04-29T02:10:56.686Z,11.01
2023-04-29T02:12:11.165Z,11.02
2023-04-29T02:13:13.823Z,11.02
2023-04-29T02:14:17.061Z,11.02
2023-04-29T02:15:19.904Z,11.03
2023-04-29T02:16:22.270Z,11.01
2023-04-29T02:17:42.483Z,11.02
2023-04-29T02:18:45.851Z,11.02
2023-04-29T02:19:48.165Z,11.02
2023-04-29T02:20:51.938Z,11.02
2023-04-29T02:21:54.165Z,11.02
2023-04-29T02:22:56.444Z,11.01
2023-04-29T02:23:58.696Z,11.02
2023-04-29T02:25:01.203Z,11.03
2023-04-29T02:26:07.317Z,11.05
2023-04-29T02:27:10.465Z,11.04
2023-04-29T02:28:12.824Z,11.03
2023-04-29T02:29:16.410Z,11.03
2023-04-29T02:30:19.902Z,11.05
2023-04-29T02:31:22.261Z,11.05
2023-04-29T02:32:24.656Z,11.03
2023-04-29T02:33:26.975Z,11.06
2023-04-29T02:34:29.442Z,11.05
2023-04-29T02:35:32.027Z,11.05
2023-04-29T02:36:34.334Z,11.06
2023-04-29T02:37:36.774Z,11.05
2023-04-29T02:38:39.023Z,11.06
2023-04-29T02:39:42.709Z,11.05
2023-04-29T02:40:46.162Z,11.07
2023-04-29T02:41:49.205Z,11.07
2023-04-29T02:42:51.551Z,11.08
2023-04-29T02:43:53.817Z,11.07
2023-04-29T02:44:56.347Z,11.09
2023-04-29T02:46:01.098Z,11.09
2023-04-29T02:47:04.056Z,11.10
2023-04-29T02:48:07.034Z,11.11
2023-04-29T02:49:10.088Z,11.11
2023-04-29T02:50:12.568Z,11.11
2023-04-29T02:51:14.887Z,11.11
2023-04-29T02:52:20.042Z,11.12
2023-04-29T02:53:23.563Z,11.13
2023-04-29T02:54:26.004Z,11.13
2023-04-29T02:55:28.304Z,11.13
2023-04-29T02:56:34.455Z,11.14
2023-04-29T02:57:36.737Z,11.15
2023-04-29T02:58:39.704Z,11.16
2023-04-29T02:59:42.297Z,11.17
2023-04-29T03:00:44.598Z,11.17
2023-04-29T03:01:48.026Z,11.18
2023-04-29T03:02:50.709Z,11.18
2023-04-29T03:03:54.261Z,11.19
2023-04-29T03:04:56.706Z,11.20
2023-04-29T03:05:58.972Z,11.20
2023-04-29T03:07:01.474Z,11.20
2023-04-29T03:08:04.956Z,11.22
2023-04-29T03:09:08.061Z,11.22
2023-04-29T03:10:10.462Z,11.21
2023-04-29T03:11:13.503Z,11.24
2023-04-29T03:12:16.978Z,11.22
2023-04-29T03:13:21.396Z,11.22
2023-04-29T03:14:23.792Z,11.24
2023-04-29T03:15:26.435Z,11.26
2023-04-29T03:16:29.433Z,11.25
2023-04-29T03:17:32.137Z,11.26
2023-04-29T03:18:34.457Z,11.27
2023-04-29T03:19:36.726Z,11.29
2023-04-29T03:20:38.970Z,11.29
2023-04-29T03:21:41.214Z,11.29
2023-04-29T03:22:43.518Z,11.30
2023-04-29T03:23:46.121Z,11.30
2023-04-29T03:24:55.774Z,11.30
2023-04-29T03:25:58.130Z,11.29
2023-04-29T03:27:01.448Z,11.31
2023-04-29T03:28:04.453Z,11.30
2023-04-29T03:29:07.553Z,11.32
2023-04-29T03:30:10.344Z,11.32
2023-04-29T03:31:21.316Z,11.32
2023-04-29T03:32:24.332Z,11.32
2023-04-29T03:33:26.854Z,11.32
2023-04-29T03:34:29.783Z,11.33
2023-04-29T03:35:46.069Z,11.34
2023-04-29T03:37:01.490Z,11.33
2023-04-29T03:38:04.192Z,11.35
2023-04-29T03:39:08.768Z,11.34
2023-04-29T03:40:12.544Z,11.35
2023-04-29T03:41:16.004Z,11.36
2023-04-29T03:42:18.283Z,11.36
2023-04-29T03:43:20.934Z,11.35
2023-04-29T03:44:23.466Z,11.37
2023-04-29T03:45:25.787Z,11.36
2023-04-29T03:46:28.138Z,11.39
2023-04-29T03:47:30.416Z,11.38
2023-04-29T03:48:33.143Z,11.39
2023-04-29T03:49:36.034Z,11.38
2023-04-29T03:50:38.363Z,11.39
2023-04-29T03:51:40.688Z,11.40
2023-04-29T03:52:50.707Z,11.41
2023-04-29T03:53:57.054Z,11.41
2023-04-29T03:55:00.329Z,11.42
2023-04-29T03:56:03.488Z,11.43
2023-04-29T03:57:06.159Z,11.42
2023-04-29T03:58:09.198Z,11.44
2023-04-29T03:59:11.515Z,11.44
2023-04-29T04:00:14.772Z,11.44
2023-04-29T04:01:21.111Z,11.45
2023-04-29T04:02:23.773Z,11.46
2023-04-29T04:03:27.991Z,11.47
2023-04-29T04:04:32.501Z,11.46
2023-04-29T04:05:34.992Z,11.47
2023-04-29T04:06:44.341Z,11.47
2023-04-29T04:07:48.256Z,11.49
2023-04-29T04:09:21.240Z,11.49
2023-04-29T04:10:23.621Z,11.49
2023-04-29T04:11:25.981Z,11.49
2023-04-29T04:12:33.626Z,11.50
2023-04-29T04:13:37.079Z,11.50
2023-04-29T04:14:40.113Z,11.50
2023-04-29T04:15:42.722Z,11.52
2023-04-29T04:16:45.176Z,11.52
2023-04-29T04:17:47.531Z,11.51
2023-04-29T04:18:50.040Z,11.52
2023-04-29T04:19:52.676Z,11.54
2023-04-29T04:20:55.270Z,11.53
2023-04-29T04:21:59.851Z,11.54
2023-04-29T04:23:02.426Z,11.54
2023-04-29T04:24:06.104Z,11.56
2023-04-29T04:25:08.952Z,11.56
2023-04-29T04:26:13.755Z,11.56
2023-04-29T04:27:28.054Z,11.57
2023-04-29T04:28:33.232Z,11.57
2023-04-29T04:29:41.150Z,11.58
2023-04-29T04:30:49.872Z,11.59
2023-04-29T04:31:52.273Z,11.61
2023-04-29T04:32:55.690Z,11.60
2023-04-29T04:33:59.939Z,11.61
2023-04-29T04:35:03.415Z,11.60
2023-04-29T04:36:06.140Z,11.61
2023-04-29T04:37:08.455Z,11.61
2023-04-29T04:38:11.685Z,11.62
2023-04-29T04:39:14.237Z,11.63
2023-04-29T04:40:17.224Z,11.63
2023-04-29T04:41:39.776Z,11.64
2023-04-29T04:42:42.241Z,11.65
2023-04-29T04:43:48.935Z,11.64
2023-04-29T04:44:58.549Z,11.65
2023-04-29T04:46:15.205Z,11.65
2023-04-29T04:47:27.696Z,11.65
2023-04-29T04:48:37.668Z,11.66
2023-04-29T04:49:40.256Z,11.66
2023-04-29T04:50:43.524Z,11.66
2023-04-29T04:51:45.983Z,11.67
2023-04-29T04:52:48.734Z,11.68
2023-04-29T04:54:04.425Z,11.67
2023-04-29T04:55:09.347Z,11.69
2023-04-29T04:56:12.443Z,11.68
2023-04-29T04:57:14.955Z,11.69
2023-04-29T04:58:17.566Z,11.68
2023-04-29T04:59:19.908Z,11.69
2023-04-29T05:00:22.272Z,11.72
2023-04-29T05:01:24.830Z,11.72
2023-04-29T05:02:27.380Z,11.72
2023-04-29T05:03:30.134Z,11.73
2023-04-29T05:04:32.685Z,11.74
2023-04-29T05:05:35.035Z,11.75
2023-04-29T05:06:37.912Z,11.76
2023-04-29T05:07:40.406Z,11.75
2023-04-29T05:08:43.959Z,11.78
2023-04-29T05:09:46.294Z,11.77
2023-04-29T05:10:48.662Z,11.78
2023-04-29T05:11:51.372Z,11.79
2023-04-29T05:12:54.277Z,11.79
2023-04-29T05:13:56.597Z,11.80
2023-04-29T05:14:58.937Z,11.82
2023-04-29T05:16:06.233Z,11.82
2023-04-29T05:17:10.307Z,11.82
2023-04-29T05:18:13.104Z,11.83
2023-04-29T05:19:19.630Z,11.83
2023-04-29T05:20:21.998Z,11.84
2023-04-29T05:21:24.305Z,11.86
2023-04-29T05:22:26.717Z,11.88
2023-04-29T05:23:29.301Z,11.88
2023-04-29T05:24:33.087Z,11.90
2023-04-29T05:25:35.527Z,11.91
2023-04-29T05:26:38.546Z,11.93
2023-04-29T05:27:42.133Z,11.93
2023-04-29T05:28:48.377Z,11.95
2023-04-29T05:29:51.203Z,11.96
2023-04-29T05:30:54.253Z,11.98
2023-04-29T05:31:56.603Z,12.00
2023-04-29T05:33:00.880Z,12.02
2023-04-29T05:34:03.534Z,12.05
2023-04-29T05:35:07.554Z,12.06
2023-04-29T05:36:10.947Z,12.09
2023-04-29T05:37:13.714Z,12.09
2023-04-29T05:38:33.024Z,12.12
2023-04-29T05:39:40.058Z,12.13
2023-04-29T05:40:50.289Z,12.14
2023-04-29T05:42:15.976Z,12.19
2023-04-29T05:43:22.522Z,12.21
2023-04-29T05:44:24.822Z,12.22
2023-04-29T05:45:27.084Z,12.24
2023-04-29T05:46:29.397Z,12.26
2023-04-29T05:47:31.863Z,12.28
2023-04-29T05:48:34.146Z,12.31
2023-04-29T05:49:36.418Z,12.34
2023-04-29T05:50:38.702Z,12.37
2023-04-29T05:51:41.048Z,12.40
2023-04-29T05:52:43.430Z,12.43
2023-04-29T05:53:45.826Z,12.46
2023-04-29T05:54:48.340Z,12.49
2023-04-29T05:55:51.577Z,12.51
2023-04-29T05:56:56.310Z,12.56
2023-04-29T05:58:00.225Z,12.58
2023-04-29T05:59:02.501Z,12.62
2023-04-29T06:00:07.110Z,12.66
2023-04-29T06:01:17.579Z,12.69
2023-04-29T06:02:21.480Z,12.73
2023-04-29T06:03:24.344Z,12.75
2023-04-29T06:04:44.390Z,12.81
2023-04-29T06:06:02.387Z,12.84
2023-04-29T06:07:15.012Z,12.88
2023-04-29T06:08:25.845Z,12.92
2023-04-29T06:09:38.616Z,12.95
2023-04-29T06:10:41.426Z,13.00
2023-04-29T06:11:45.384Z,13.03
2023-04-29T06:12:50.980Z,13.05
2023-04-29T06:13:53.294Z,13.08
2023-04-29T06:14:55.786Z,13.10
2023-04-29T06:15:58.143Z,13.15
2023-04-29T06:17:02.312Z,13.17
2023-04-29T06:18:06.012Z,13.20
2023-04-29T06:19:08.475Z,13.22
2023-04-29T06:20:11.408Z,13.27
2023-04-29T06:21:15.202Z,13.31
2023-04-29T06:22:18.644Z,13.34
2023-04-29T06:23:25.188Z,13.37
2023-04-29T06:24:27.872Z,13.41
2023-04-29T06:25:30.699Z,13.44
2023-04-29T06:26:33.702Z,13.49
2023-04-29T06:27:35.986Z,13.54
2023-04-29T06:28:38.528Z,13.57
2023-04-29T06:29:42.062Z,13.59
2023-04-29T06:30:46.010Z,13.64
2023-04-29T06:31:49.235Z,13.67
2023-04-29T06:32:52.042Z,13.70
2023-04-29T06:33:55.234Z,13.74
2023-04-29T06:34:57.474Z,13.76
2023-04-29T06:36:07.173Z,13.79
2023-04-29T06:37:38.251Z,13.82
2023-04-29T06:39:05.197Z,13.85
2023-04-29T06:40:29.033Z,13.89
2023-04-29T06:41:59.051Z,13.91
2023-04-29T06:43:20.170Z,13.91
2023-04-29T06:44:44.031Z,13.94
2023-04-29T06:46:13.361Z,13.95
2023-04-29T06:47:23.734Z,13.95
2023-04-29T06:48:57.825Z,13.96
2023-04-29T06:50:00.596Z,13.96
2023-04-29T06:51:02.886Z,13.97
2023-04-29T06:52:05.177Z,13.97
2023-04-29T06:53:07.583Z,13.97
2023-04-29T06:54:09.840Z,13.98
2023-04-29T06:55:12.694Z,13.97
2023-04-29T06:56:18.359Z,13.97
2023-04-29T06:57:23.073Z,13.99
2023-04-29T06:58:25.367Z,13.99
2023-04-29T06:59:27.688Z,13.98
2023-04-29T07:00:30.238Z,14.00
2023-04-29T07:01:32.619Z,13.99
2023-04-29T07:02:36.491Z,13.99
2023-04-29T07:03:38.842Z,14.00
2023-04-29T07:04:42.607Z,14.00
2023-04-29T07:05:46.520Z,14.01
2023-04-29T07:06:48.898Z,14.02
2023-04-29T07:07:51.233Z,14.03
2023-04-29T07:08:55.503Z,14.02
2023-04-29T07:09:59.277Z,14.02
2023-04-29T07:11:02.431Z,14.03
2023-04-29T07:12:05.544Z,14.02
2023-04-29T07:13:07.811Z,14.02
2023-04-29T07:14:10.140Z,14.03
2023-04-29T07:15:12.450Z,14.03
2023-04-29T07:16:19.177Z,14.02
2023-04-29T07:17:21.546Z,14.02
2023-04-29T07:18:23.940Z,14.00
2023-04-29T07:19:26.570Z,14.01
2023-04-29T07:20:29.321Z,14.00
2023-04-29T07:21:31.646Z,14.02
2023-04-29T07:22:34.118Z,14.02
2023-04-29T07:23:36.422Z,14.02
2023-04-29T07:24:38.743Z,14.03
2023-04-29T07:25:41.599Z,14.04
2023-04-29T07:26:45.332Z,14.05
2023-04-29T07:27:50.625Z,14.06
2023-04-29T07:28:53.427Z,14.06
2023-04-29T07:29:55.682Z,14.07
2023-04-29T07:30:59.237Z,14.08
2023-04-29T07:32:01.673Z,14.10
2023-04-29T07:33:04.730Z,14.09
2023-04-29T07:34:07.481Z,14.10
2023-04-29T07:35:09.878Z,14.11
2023-04-29T07:36:12.294Z,14.12
2023-04-29T07:37:14.527Z,14.13
2023-04-29T07:38:17.328Z,14.15
2023-04-29T07:39:19.678Z,14.16
2023-04-29T07:40:24.755Z,14.17
2023-04-29T07:41:28.908Z,14.17
2023-04-29T07:42:31.164Z,14.18
2023-04-29T07:43:34.733Z,14.20
2023-04-29T07:44:37.195Z,14.21
2023-04-29T07:45:40.132Z,14.21
2023-04-29T07:46:42.476Z,14.22
2023-04-29T07:47:45.770Z,14.23
2023-04-29T07:48:48.165Z,14.24
2023-04-29T07:49:50.499Z,14.24
2023-04-29T07:50:52.852Z,14.24
2023-04-29T07:51:55.512Z,14.24
2023-04-29T07:53:00.380Z,14.24
2023-04-29T07:54:02.962Z,14.24
2023-04-29T07:55:05.867Z,14.24
2023-04-29T07:56:08.828Z,14.24
2023-04-29T07:57:12.237Z,14.24
2023-04-29T07:58:14.693Z,14.24
2023-04-29T07:59:17.137Z,14.24
2023-04-29T08:00:19.714Z,14.24
2023-04-29T08:01:23.185Z,14.24
2023-04-29T08:02:25.672Z,14.23
2023-04-29T08:03:28.250Z,14.23
2023-04-29T08:04:31.083Z,14.23
2023-04-29T08:05:41.442Z,14.24
2023-04-29T08:06:43.824Z,14.25
2023-04-29T08:07:51.083Z,14.26
2023-04-29T08:08:53.741Z,14.27
2023-04-29T08:09:56.079Z,14.29
2023-04-29T08:10:58.531Z,14.31
2023-04-29T08:12:02.290Z,14.35
2023-04-29T08:13:04.634Z,14.36
2023-04-29T08:14:07.390Z,14.37
2023-04-29T08:15:12.353Z,14.39
2023-04-29T08:16:14.622Z,14.42
2023-04-29T08:17:16.985Z,14.45
2023-04-29T08:18:19.357Z,14.46
2023-04-29T08:19:22.176Z,14.48
2023-04-29T08:20:25.071Z,14.51
2023-04-29T08:21:27.971Z,14.52
2023-04-29T08:22:30.872Z,14.53
2023-04-29T08:23:35.936Z,14.57
2023-04-29T08:24:38.261Z,14.57
2023-04-29T08:25:44.307Z,14.59
2023-04-29T08:26:47.574Z,14.60
2023-04-29T08:27:49.857Z,14.62
2023-04-29T08:28:52.130Z,14.62
2023-04-29T08:29:54.473Z,14.62
2023-04-29T08:30:56.894Z,14.62
2023-04-29T08:31:59.331Z,14.63
2023-04-29T08:33:01.699Z,14.63
2023-04-29T08:34:04.102Z,14.64
2023-04-29T08:35:06.989Z,14.63
2023-04-29T08:36:09.311Z,14.66
2023-04-29T08:37:12.086Z,14.65
2023-04-29T08:38:14.505Z,14.64
2023-04-29T08:39:16.764Z,14.64
2023-04-29T08:40:19.114Z,14.63
2023-04-29T08:41:21.569Z,14.63
2023-04-29T08:42:34.215Z,14.61
2023-04-29T08:43:40.974Z,14.60
2023-04-29T08:44:44.576Z,14.60
2023-04-29T08:45:50.164Z,14.58
2023-04-29T08:46:53.085Z,14.55
2023-04-29T08:47:57.575Z,14.55
2023-04-29T08:49:04.483Z,14.54
2023-04-29T08:50:07.721Z,14.52
2023-04-29T08:51:13.707Z,14.51
2023-04-29T08:52:16.007Z,14.49
2023-04-29T08:53:20.106Z,14.48
2023-04-29T08:54:22.440Z,14.48
2023-04-29T08:55:28.386Z,14.47
2023-04-29T08:56:31.614Z,14.46
2023-04-29T08:57:40.180Z,14.44
2023-04-29T08:58:44.818Z,14.43
2023-04-29T08:59:47.217Z,14.42
2023-04-29T09:00:50.014Z,14.42
2023-04-29T09:01:56.742Z,14.41
2023-04-29T09:03:00.901Z,14.39
2023-04-29T09:04:37.187Z,14.39
2023-04-29T09:05:42.159Z,14.37
2023-04-29T09:06:44.614Z,14.37
2023-04-29T09:07:47.707Z,14.37
2023-04-29T09:08:50.037Z,14.34
2023-04-29T09:09:53.717Z,14.31
2023-04-29T09:10:56.779Z,14.30
2023-04-29T09:11:59.275Z,14.28
2023-04-29T09:13:01.651Z,14.27
2023-04-29T09:14:08.358Z,14.25
2023-04-29T09:15:11.027Z,14.24
2023-04-29T09:16:13.694Z,14.22
2023-04-29T09:17:16.792Z,14.20
2023-04-29T09:18:47.117Z,14.19
2023-04-29T09:19:49.696Z,14.18
2023-04-29T09:20:52.067Z,14.17
2023-04-29T09:21:58.845Z,14.16
2023-04-29T09:23:04.275Z,14.14
2023-04-29T09:24:06.631Z,14.14
2023-04-29T09:25:15.638Z,14.13
2023-04-29T09:26:17.961Z,14.12
2023-04-29T09:27:29.409Z,14.12
2023-04-29T09:28:32.036Z,14.11
2023-04-29T09:29:36.732Z,14.12
2023-04-29T09:30:46.339Z,14.11
2023-04-29T09:31:51.013Z,14.10
2023-04-29T09:33:09.963Z,14.10
2023-04-29T09:34:13.272Z,14.08
2023-04-29T09:35:21.813Z,14.10
2023-04-29T09:36:59.946Z,14.08
2023-04-29T09:38:16.307Z,14.09
2023-04-29T09:39:21.009Z,14.08
2023-04-29T09:40:40.415Z,14.09
2023-04-29T09:41:55.365Z,14.08
2023-04-29T09:42:58.774Z,14.09
2023-04-29T09:44:08.436Z,14.09
2023-04-29T09:45:12.269Z,14.09
2023-04-29T09:46:16.441Z,14.10
2023-04-29T09:47:30.198Z,14.11
2023-04-29T09:48:34.427Z,14.12
2023-04-29T09:49:40.016Z,14.11
2023-04-29T09:50:44.410Z,14.13
2023-04-29T09:51:55.448Z,14.15
2023-04-29T09:52:59.449Z,14.15
2023-04-29T09:54:20.951Z,14.16
2023-04-29T09:55:23.249Z,14.17
2023-04-29T09:56:29.481Z,14.18
2023-04-29T09:57:43.483Z,14.21
2023-04-29T09:58:47.450Z,14.22
2023-04-29T09:59:49.780Z,14.24
2023-04-29T10:00:53.874Z,14.26
2023-04-29T10:01:58.151Z,14.28
2023-04-29T10:03:02.145Z,14.30
2023-04-29T10:04:05.572Z,14.34
2023-04-29T10:05:10.326Z,14.36
2023-04-29T10:06:13.589Z,14.37
2023-04-29T10:07:17.898Z,14.40
2023-04-29T10:08:20.554Z,14.40
2023-04-29T10:09:23.910Z,14.43
2023-04-29T10:10:30.224Z,14.43
2023-04-29T10:11:34.506Z,14.44
2023-04-29T10:12:38.851Z,14.45
2023-04-29T10:13:44.210Z,14.45
2023-04-29T10:15:27.893Z,14.48
2023-04-29T10:16:34.028Z,14.48
2023-04-29T10:17:49.892Z,14.51
2023-04-29T10:18:56.851Z,14.51
2023-04-29T10:20:06.654Z,14.52
2023-04-29T10:21:12.235Z,14.51
2023-04-29T10:22:27.141Z,14.49
2023-04-29T10:23:31.258Z,14.51
2023-04-29T10:24:38.129Z,14.49
2023-04-29T10:25:43.234Z,14.48
2023-04-29T10:26:47.527Z,14.48
2023-04-29T10:27:53.721Z,14.47
2023-04-29T10:28:56.992Z,14.48
2023-04-29T10:30:02.509Z,14.47
2023-04-29T10:31:06.035Z,14.49
2023-04-29T10:32:12.833Z,14.48
2023-04-29T10:33:16.766Z,14.51
2023-04-29T10:34:19.776Z,14.53
2023-04-29T10:35:26.061Z,14.53
2023-04-29T10:36:31.762Z,14.54
2023-04-29T10:37:34.204Z,14.54
2023-04-29T10:38:43.263Z,14.55
2023-04-29T10:39:58.056Z,14.57
2023-04-29T10:41:05.397Z,14.59
2023-04-29T10:42:21.335Z,14.57
2023-04-29T10:43:28.045Z,14.58
2023-04-29T10:44:30.304Z,14.60
2023-04-29T10:45:36.472Z,14.62
2023-04-29T10:46:39.359Z,14.63
2023-04-29T10:47:41.721Z,14.65
2023-04-29T10:48:47.780Z,14.65
2023-04-29T10:50:04.707Z,14.66
2023-04-29T10:51:06.984Z,14.69
2023-04-29T10:52:09.404Z,14.71
2023-04-29T10:53:11.668Z,14.73
2023-04-29T10:54:17.782Z,14.74
2023-04-29T10:55:20.138Z,14.76
2023-04-29T10:56:22.430Z,14.76
2023-04-29T10:57:25.473Z,14.77
2023-04-29T10:58:37.009Z,14.78
2023-04-29T10:59:39.234Z,14.79
2023-04-29T11:00:41.562Z,14.80
2023-04-29T11:01:49.501Z,14.79
2023-04-29T11:02:51.835Z,14.80
2023-04-29T11:03:58.961Z,14.81
2023-04-29T11:05:10.428Z,14.81
2023-04-29T11:06:12.958Z,14.80
2023-04-29T11:07:30.249Z,14.81
2023-04-29T11:08:40.129Z,14.79
2023-04-29T11:09:42.529Z,14.76
2023-04-29T11:10:45.915Z,14.76
2023-04-29T11:12:06.178Z,14.75
2023-04-29T11:13:28.877Z,14.74
2023-04-29T11:14:50.572Z,14.73
2023-04-29T11:15:54.258Z,14.74
2023-04-29T11:17:02.058Z,14.72
2023-04-29T11:18:04.313Z,14.69
2023-04-29T11:19:08.840Z,14.68
2023-04-29T11:20:14.432Z,14.69
2023-04-29T11:21:16.797Z,14.65
2023-04-29T11:22:19.343Z,14.64
2023-04-29T11:23:26.747Z,14.63
2023-04-29T11:24:30.810Z,14.60
2023-04-29T11:25:34.444Z,14.59
2023-04-29T11:26:37.232Z,14.58
2023-04-29T11:27:42.800Z,14.57
2023-04-29T11:28:45.917Z,14.54
2023-04-29T11:29:48.205Z,14.55
2023-04-29T11:30:51.522Z,14.55
2023-04-29T11:32:00.056Z,14.54
2023-04-29T11:33:02.519Z,14.55
2023-04-29T11:34:05.844Z,14.57
2023-04-29T11:35:13.023Z,14.55
2023-04-29T11:36:15.450Z,14.54
2023-04-29T11:37:25.937Z,14.54
2023-04-29T11:38:29.423Z,14.57
2023-04-29T11:39:36.371Z,14.59
2023-04-29T11:40:51.425Z,14.60
2023-04-29T11:42:07.104Z,14.60
2023-04-29T11:43:09.401Z,14.64
2023-04-29T11:44:12.505Z,14.66
2023-04-29T11:45:15.486Z,14.67
2023-04-29T11:46:17.912Z,14.68
2023-04-29T11:47:22.192Z,14.70
2023-04-29T11:48:26.073Z,14.70
2023-04-29T11:49:35.005Z,14.71
2023-04-29T11:50:37.447Z,14.72
2023-04-29T11:51:39.758Z,14.72
2023-04-29T11:52:42.235Z,14.71
2023-04-29T11:53:45.042Z,14.73
2023-04-29T11:54:47.946Z,14.73
2023-04-29T11:55:50.394Z,14.73
2023-04-29T11:56:57.133Z,14.73
2023-04-29T11:58:00.178Z,14.73
2023-04-29T11:59:11.741Z,14.76
2023-04-29T12:00:14.415Z,14.77
2023-04-29T12:01:16.963Z,14.76
2023-04-29T12:02:23.394Z,14.77
2023-04-29T12:03:25.845Z,14.77
2023-04-29T12:04:29.032Z,14.77
2023-04-29T12:05:31.606Z,14.75
2023-04-29T12:06:34.069Z,14.76
2023-04-29T12:07:37.384Z,14.75
2023-04-29T12:08:41.092Z,14.74
2023-04-29T12:09:44.947Z,14.72
2023-04-29T12:10:48.083Z,14.72
2023-04-29T12:11:51.591Z,14.74
2023-04-29T12:12:54.102Z,14.70
2023-04-29T12:13:57.629Z,14.68
2023-04-29T12:15:00.047Z,14.64
2023-04-29T12:16:02.669Z,14.61
2023-04-29T12:17:06.109Z,14.61
2023-04-29T12:18:09.261Z,14.59
2023-04-29T12:19:12.288Z,14.57
2023-04-29T12:20:15.294Z,14.53
2023-04-29T12:21:17.875Z,14.47
2023-04-29T12:22:20.334Z,14.44
2023-04-29T12:23:24.682Z,14.41
2023-04-29T12:24:27.019Z,14.39
2023-04-29T12:25:29.666Z,14.36
2023-04-29T12:26:32.766Z,14.33
2023-04-29T12:27:36.598Z,14.29
2023-04-29T12:28:41.891Z,14.27
2023-04-29T12:29:44.144Z,14.23
2023-04-29T12:30:51.786Z,14.20
2023-04-29T12:31:54.660Z,14.16
2023-04-29T12:32:57.118Z,14.14
2023-04-29T12:33:59.528Z,14.12
2023-04-29T12:35:01.752Z,14.15
2023-04-29T12:36:04.245Z,14.13
2023-04-29T12:37:06.587Z,14.11
2023-04-29T12:38:09.492Z,14.10
2023-04-29T12:39:14.718Z,14.10
2023-04-29T12:40:17.709Z,14.10
2023-04-29T12:41:21.468Z,14.09
2023-04-29T12:42:23.715Z,14.08
2023-04-29T12:43:30.251Z,14.08
2023-04-29T12:44:38.905Z,14.07
2023-04-29T12:45:41.311Z,14.08
2023-04-29T12:46:44.025Z,14.08
2023-04-29T12:47:46.731Z,14.08
2023-04-29T12:48:49.053Z,14.07
2023-04-29T12:49:51.577Z,14.06
2023-04-29T12:50:53.948Z,14.04
2023-04-29T12:51:56.267Z,14.04
2023-04-29T12:53:00.381Z,14.03
2023-04-29T12:54:04.666Z,14.03
2023-04-29T12:55:07.767Z,14.03
2023-04-29T12:56:12.409Z,14.00
2023-04-29T12:57:14.768Z,13.98
2023-04-29T12:58:17.082Z,14.02
2023-04-29T12:59:19.421Z,13.95
2023-04-29T13:00:21.827Z,13.94
2023-04-29T13:01:24.211Z,13.89
2023-04-29T13:02:26.766Z,13.85
2023-04-29T13:03:29.268Z,13.83
2023-04-29T13:04:31.944Z,13.79
2023-04-29T13:05:35.124Z,13.76
2023-04-29T13:06:41.998Z,13.71
2023-04-29T13:07:44.430Z,13.69
2023-04-29T13:08:46.894Z,13.65
2023-04-29T13:09:49.528Z,13.62
2023-04-29T13:10:51.999Z,13.58
2023-04-29T13:11:54.455Z,13.55
2023-04-29T13:12:57.088Z,13.52
2023-04-29T13:13:59.443Z,13.48
2023-04-29T13:15:01.888Z,13.44
2023-04-29T13:16:05.340Z,13.40
2023-04-29T13:17:07.769Z,13.37
2023-04-29T13:18:10.209Z,13.31
2023-04-29T13:19:30.046Z,13.30
2023-04-29T13:20:40.943Z,13.24
2023-04-29T13:21:44.487Z,13.21
2023-04-29T13:22:46.797Z,13.15
2023-04-29T13:23:49.543Z,13.11
2023-04-29T13:24:52.684Z,13.09
2023-04-29T13:25:55.072Z,13.04
2023-04-29T13:26:58.397Z,13.01
2023-04-29T13:28:00.691Z,12.98
2023-04-29T13:29:03.351Z,12.93
2023-04-29T13:30:06.830Z,12.88
2023-04-29T13:31:09.074Z,12.86
2023-04-29T13:32:11.639Z,12.83
2023-04-29T13:33:14.531Z,12.80
2023-04-29T13:34:17.099Z,12.77
2023-04-29T13:35:19.428Z,12.73
2023-04-29T13:36:21.861Z,12.68
2023-04-29T13:37:24.152Z,12.63
2023-04-29T13:38:26.389Z,12.62
2023-04-29T13:39:29.403Z,12.58
2023-04-29T13:40:31.647Z,12.56
2023-04-29T13:41:35.752Z,12.51
2023-04-29T13:42:45.273Z,12.48
2023-04-29T13:43:51.261Z,12.45
2023-04-29T13:44:57.457Z,12.44
2023-04-29T13:45:59.813Z,12.40
2023-04-29T13:47:02.333Z,12.38
2023-04-29T13:48:12.013Z,12.35
2023-04-29T13:49:56.076Z,12.32
2023-04-29T13:52:16.801Z,12.29
2023-04-29T13:53:41.296Z,12.24
2023-04-29T13:56:35.959Z,12.19
2023-04-29T14:00:45.395Z,12.11
2023-04-29T14:04:01.421Z,12.08
2023-04-29T14:05:04.441Z,12.06
2023-04-29T14:06:07.554Z,12.05
2023-04-29T14:07:09.819Z,12.04
2023-04-29T14:08:12.142Z,12.01
2023-04-29T14:09:14.435Z,12.00
2023-04-29T14:10:16.792Z,12.01
2023-04-29T14:11:19.788Z,11.99
2023-04-29T14:12:22.087Z,11.97